sensor_id;sensor_type;location;lat;lon;timestamp;pressure;altitude;pressure_sealevel;temperature;humidity
51249;BME280;39642;47.556;18.728;2022-11-20T00:01:43;99202.53;;;21.55;34.97
51249;BME280;39642;47.556;18.728;2022-11-20T00:04:10;99203.47;;;21.54;34.84
51249;BME280;39642;47.556;18.728;2022-11-20T00:06:36;99201.78;;;21.53;35.04
51249;BME280;39642;47.556;18.728;2022-11-20T00:09:02;99214.06;;;21.54;35.33
51249;BME280;39642;47.556;18.728;2022-11-20T00:11:30;99220.19;;;21.54;34.92
51249;BME280;39642;47.556;18.728;2022-11-20T00:13:59;99208.75;;;21.54;35.03
51249;BME280;39642;47.556;18.728;2022-11-20T00:16:28;99212.25;;;21.54;35.11
51249;BME280;39642;47.556;18.728;2022-11-20T00:18:55;99212.25;;;21.54;34.91
51249;BME280;39642;47.556;18.728;2022-11-20T00:21:24;99210.47;;;21.55;35.12
51249;BME280;39642;47.556;18.728;2022-11-20T00:23:51;99207.81;;;21.55;35.04
51249;BME280;39642;47.556;18.728;2022-11-20T00:26:19;99209.50;;;21.56;34.89
51249;BME280;39642;47.556;18.728;2022-11-20T00:28:51;99201.53;;;21.56;34.91
51249;BME280;39642;47.556;18.728;2022-11-20T00:31:17;99196.25;;;21.56;34.58
51249;BME280;39642;47.556;18.728;2022-11-20T00:33:43;99199.75;;;21.56;34.61
51249;BME280;39642;47.556;18.728;2022-11-20T00:36:15;99198.91;;;21.56;35.05
51249;BME280;39642;47.556;18.728;2022-11-20T00:38:42;99207.69;;;21.56;34.76
51249;BME280;39642;47.556;18.728;2022-11-20T00:41:10;99212.97;;;21.56;35.02
51249;BME280;39642;47.556;18.728;2022-11-20T00:43:37;99217.44;;;21.56;34.38
51249;BME280;39642;47.556;18.728;2022-11-20T00:46:06;99223.59;;;21.56;34.36
51249;BME280;39642;47.556;18.728;2022-11-20T00:48:32;99229.84;;;21.55;34.72
51249;BME280;39642;47.556;18.728;2022-11-20T00:50:58;99228.12;;;21.54;34.31
51249;BME280;39642;47.556;18.728;2022-11-20T00:53:25;99230.78;;;21.54;34.40
51249;BME280;39642;47.556;18.728;2022-11-20T00:56:03;99230.78;;;21.54;34.58
51249;BME280;39642;47.556;18.728;2022-11-20T00:58:35;99236.09;;;21.54;34.44
51249;BME280;39642;47.556;18.728;2022-11-20T01:03:32;99240.66;;;21.52;34.40
51249;BME280;39642;47.556;18.728;2022-11-20T01:06:06;99245.94;;;21.52;34.51
51249;BME280;39642;47.556;18.728;2022-11-20T01:08:33;99239.91;;;21.50;34.37
51249;BME280;39642;47.556;18.728;2022-11-20T01:11:05;99242.56;;;21.50;34.52
51249;BME280;39642;47.556;18.728;2022-11-20T01:13:32;99251.38;;;21.51;34.52
51249;BME280;39642;47.556;18.728;2022-11-20T01:16:08;99239.06;;;21.50;34.56
51249;BME280;39642;47.556;18.728;2022-11-20T01:18:35;99249.66;;;21.50;34.62
51249;BME280;39642;47.556;18.728;2022-11-20T01:21:03;99244.38;;;21.50;34.88
51249;BME280;39642;47.556;18.728;2022-11-20T01:23:35;99241.72;;;21.50;34.52
51249;BME280;39642;47.556;18.728;2022-11-20T01:26:04;99240.88;;;21.49;34.82
51249;BME280;39642;47.556;18.728;2022-11-20T01:28:30;99239.91;;;21.50;34.72
51249;BME280;39642;47.556;18.728;2022-11-20T01:30:57;99236.31;;;21.51;34.56
51249;BME280;39642;47.556;18.728;2022-11-20T01:33:23;99238.97;;;21.51;35.00
51249;BME280;39642;47.556;18.728;2022-11-20T01:35:50;99236.22;;;21.53;34.67
51249;BME280;39642;47.556;18.728;2022-11-20T01:38:16;99223.81;;;21.53;34.85
51249;BME280;39642;47.556;18.728;2022-11-20T01:40:42;99225.63;;;21.53;34.65
51249;BME280;39642;47.556;18.728;2022-11-20T01:43:17;99213.22;;;21.53;34.58
51249;BME280;39642;47.556;18.728;2022-11-20T01:48:26;99213.22;;;21.53;34.24
51249;BME280;39642;47.556;18.728;2022-11-20T01:50:53;99217.53;;;21.54;34.55
51249;BME280;39642;47.556;18.728;2022-11-20T01:53:21;99218.41;;;21.55;34.31
51249;BME280;39642;47.556;18.728;2022-11-20T01:55:52;99214.06;;;21.54;34.55
51249;BME280;39642;47.556;18.728;2022-11-20T01:58:29;99208.75;;;21.54;34.40
51249;BME280;39642;47.556;18.728;2022-11-20T02:00:56;99207.91;;;21.53;34.21
51249;BME280;39642;47.556;18.728;2022-11-20T02:03:22;99200.91;;;21.52;34.07
51249;BME280;39642;47.556;18.728;2022-11-20T02:05:57;99203.56;;;21.52;34.33
51249;BME280;39642;47.556;18.728;2022-11-20T02:08:26;99212.38;;;21.53;34.07
51249;BME280;39642;47.556;18.728;2022-11-20T02:10:53;99209.00;;;21.51;34.22
51249;BME280;39642;47.556;18.728;2022-11-20T02:13:19;99208.13;;;21.50;33.96
51249;BME280;39642;47.556;18.728;2022-11-20T02:16:18;99195.75;;;21.51;34.17
51249;BME280;39642;47.556;18.728;2022-11-20T02:18:46;99193.19;;;21.49;34.05
51249;BME280;39642;47.556;18.728;2022-11-20T02:26:22;99172.09;;;21.48;34.38
51249;BME280;39642;47.556;18.728;2022-11-20T02:28:49;99176.56;;;21.47;34.34
51249;BME280;39642;47.556;18.728;2022-11-20T02:31:16;99173.91;;;21.47;34.25
51249;BME280;39642;47.556;18.728;2022-11-20T02:33:42;99172.09;;;21.48;34.29
51249;BME280;39642;47.556;18.728;2022-11-20T02:36:11;99165.88;;;21.49;34.48
51249;BME280;39642;47.556;18.728;2022-11-20T02:38:41;99167.69;;;21.48;34.45
51249;BME280;39642;47.556;18.728;2022-11-20T02:41:06;99179.13;;;21.49;34.19
51249;BME280;39642;47.556;18.728;2022-11-20T02:43:32;99177.31;;;21.49;34.11
51249;BME280;39642;47.556;18.728;2022-11-20T02:45:58;99176.34;;;21.50;34.31
51249;BME280;39642;47.556;18.728;2022-11-20T02:48:24;99179.72;;;21.52;34.63
51249;BME280;39642;47.556;18.728;2022-11-20T02:50:50;99182.50;;;21.51;34.39
51249;BME280;39642;47.556;18.728;2022-11-20T02:53:16;99179.72;;;21.52;34.38
51249;BME280;39642;47.556;18.728;2022-11-20T02:55:42;99196.59;;;21.51;34.11
51249;BME280;39642;47.556;18.728;2022-11-20T02:58:08;99203.47;;;21.54;34.02
51249;BME280;39642;47.556;18.728;2022-11-20T03:00:33;99200.91;;;21.52;34.37
51249;BME280;39642;47.556;18.728;2022-11-20T03:03:01;99192.97;;;21.52;34.37
51249;BME280;39642;47.556;18.728;2022-11-20T03:05:27;99192.97;;;21.52;34.16
51249;BME280;39642;47.556;18.728;2022-11-20T03:07:53;99185.87;;;21.53;34.04
51249;BME280;39642;47.556;18.728;2022-11-20T03:10:19;99179.84;;;21.51;34.08
51249;BME280;39642;47.556;18.728;2022-11-20T03:12:44;99180.69;;;21.51;34.08
51249;BME280;39642;47.556;18.728;2022-11-20T03:15:11;99185.16;;;21.51;33.76
51249;BME280;39642;47.556;18.728;2022-11-20T03:17:36;99182.50;;;21.51;33.76
51249;BME280;39642;47.556;18.728;2022-11-20T03:20:03;99180.78;;;21.50;33.83
51249;BME280;39642;47.556;18.728;2022-11-20T03:22:29;99187.91;;;21.49;33.73
51249;BME280;39642;47.556;18.728;2022-11-20T03:24:55;99188.00;;;21.48;33.89
51249;BME280;39642;47.556;18.728;2022-11-20T03:27:21;99200.31;;;21.49;33.97
51249;BME280;39642;47.556;18.728;2022-11-20T03:29:47;99204.75;;;21.48;34.19
51249;BME280;39642;47.556;18.728;2022-11-20T03:32:13;99208.34;;;21.47;34.05
51249;BME280;39642;47.556;18.728;2022-11-20T03:34:39;99206.53;;;21.48;34.24
51249;BME280;39642;47.556;18.728;2022-11-20T03:37:05;99211.00;;;21.47;34.04
51249;BME280;39642;47.556;18.728;2022-11-20T03:39:30;99207.50;;;21.47;34.14
51249;BME280;39642;47.556;18.728;2022-11-20T03:41:56;99217.25;;;21.46;34.07
51249;BME280;39642;47.556;18.728;2022-11-20T03:44:22;99213.66;;;21.47;34.22
51249;BME280;39642;47.556;18.728;2022-11-20T03:46:48;99213.66;;;21.47;34.36
51249;BME280;39642;47.556;18.728;2022-11-20T03:49:14;99203.91;;;21.48;34.50
51249;BME280;39642;47.556;18.728;2022-11-20T03:51:40;99204.75;;;21.48;34.14
51249;BME280;39642;47.556;18.728;2022-11-20T03:54:07;99202.94;;;21.49;34.41
51249;BME280;39642;47.556;18.728;2022-11-20T03:56:36;99202.81;;;21.50;34.10
51249;BME280;39642;47.556;18.728;2022-11-20T03:59:02;99211.75;;;21.49;34.29
51249;BME280;39642;47.556;18.728;2022-11-20T04:01:34;99201.88;;;21.51;34.01
51249;BME280;39642;47.556;18.728;2022-11-20T04:04:00;99192.22;;;21.50;34.35
51249;BME280;39642;47.556;18.728;2022-11-20T04:06:29;99193.94;;;21.51;34.31
51249;BME280;39642;47.556;18.728;2022-11-20T04:08:56;99183.25;;;21.53;33.93
51249;BME280;39642;47.556;18.728;2022-11-20T04:11:26;99187.66;;;21.52;33.86
51249;BME280;39642;47.556;18.728;2022-11-20T04:13:55;99189.38;;;21.53;34.05
51249;BME280;39642;47.556;18.728;2022-11-20T04:16:23;99178.03;;;21.51;33.78
51249;BME280;39642;47.556;18.728;2022-11-20T04:18:53;99183.34;;;21.51;34.02
51249;BME280;39642;47.556;18.728;2022-11-20T04:21:19;99180.69;;;21.51;33.72
51249;BME280;39642;47.556;18.728;2022-11-20T04:23:45;99159.50;;;21.51;34.05
51249;BME280;39642;47.556;18.728;2022-11-20T04:26:12;99141.91;;;21.50;33.61
51249;BME280;39642;47.556;18.728;2022-11-20T04:28:38;99141.06;;;21.50;33.73
51249;BME280;39642;47.556;18.728;2022-11-20T04:31:15;99141.91;;;21.50;33.79
51249;BME280;39642;47.556;18.728;2022-11-20T04:33:41;99157.09;;;21.48;33.98
51249;BME280;39642;47.556;18.728;2022-11-20T04:36:10;99158.88;;;21.48;34.00
51249;BME280;39642;47.556;18.728;2022-11-20T04:38:37;99155.37;;;21.47;33.95
51249;BME280;39642;47.556;18.728;2022-11-20T04:41:05;99154.44;;;21.48;33.82
51249;BME280;39642;47.556;18.728;2022-11-20T04:43:31;99150.06;;;21.47;33.91
51249;BME280;39642;47.556;18.728;2022-11-20T04:45:58;99144.78;;;21.47;34.10
51249;BME280;39642;47.556;18.728;2022-11-20T04:48:26;99137.81;;;21.46;34.05
51249;BME280;39642;47.556;18.728;2022-11-20T04:50:52;99133.44;;;21.45;33.69
51249;BME280;39642;47.556;18.728;2022-11-20T04:53:18;99137.81;;;21.46;33.98
51249;BME280;39642;47.556;18.728;2022-11-20T04:55:45;99146.69;;;21.45;33.79
51249;BME280;39642;47.556;18.728;2022-11-20T04:58:11;99145.00;;;21.44;33.63
51249;BME280;39642;47.556;18.728;2022-11-20T05:00:37;99147.66;;;21.44;33.76
51249;BME280;39642;47.556;18.728;2022-11-20T05:03:03;99147.66;;;21.44;33.75
51249;BME280;39642;47.556;18.728;2022-11-20T05:05:29;99145.84;;;21.45;33.75
51249;BME280;39642;47.556;18.728;2022-11-20T05:07:56;99149.47;;;21.44;34.13
51249;BME280;39642;47.556;18.728;2022-11-20T05:10:24;99153.81;;;21.45;33.96
51249;BME280;39642;47.556;18.728;2022-11-20T05:12:50;99140.56;;;21.45;34.04
51249;BME280;39642;47.556;18.728;2022-11-20T05:15:16;99146.69;;;21.45;34.43
51249;BME280;39642;47.556;18.728;2022-11-20T05:17:47;99142.22;;;21.46;33.92
51249;BME280;39642;47.556;18.728;2022-11-20T05:20:13;99132.50;;;21.46;34.32
51249;BME280;39642;47.556;18.728;2022-11-20T05:22:39;99128.88;;;21.47;33.95
51249;BME280;39642;47.556;18.728;2022-11-20T05:25:05;99129.72;;;21.48;33.45
51249;BME280;39642;47.556;18.728;2022-11-20T05:27:31;99125.31;;;21.48;34.17
51249;BME280;39642;47.556;18.728;2022-11-20T05:29:56;99132.28;;;21.49;33.82
51249;BME280;39642;47.556;18.728;2022-11-20T05:32:22;99137.47;;;21.51;34.13
51249;BME280;39642;47.556;18.728;2022-11-20T05:34:51;99142.75;;;21.51;34.04
51249;BME280;39642;47.556;18.728;2022-11-20T05:37:17;99133.00;;;21.51;34.11
51249;BME280;39642;47.556;18.728;2022-11-20T05:39:43;99134.81;;;21.51;33.69
51249;BME280;39642;47.556;18.728;2022-11-20T05:42:09;99126.00;;;21.50;33.79
51249;BME280;39642;47.556;18.728;2022-11-20T05:44:53;99133.00;;;21.51;33.51
51249;BME280;39642;47.556;18.728;2022-11-20T05:47:19;99133.94;;;21.50;33.63
51249;BME280;39642;47.556;18.728;2022-11-20T05:49:45;99141.91;;;21.50;33.82
51249;BME280;39642;47.556;18.728;2022-11-20T05:52:11;99139.25;;;21.50;33.61
51249;BME280;39642;47.556;18.728;2022-11-20T05:54:37;99134.91;;;21.49;33.74
51249;BME280;39642;47.556;18.728;2022-11-20T05:57:03;99134.09;;;21.49;33.66
51249;BME280;39642;47.556;18.728;2022-11-20T05:59:28;99133.25;;;21.48;33.61
51249;BME280;39642;47.556;18.728;2022-11-20T06:01:54;99145.63;;;21.48;33.64
51249;BME280;39642;47.556;18.728;2022-11-20T06:04:20;99143.84;;;21.48;33.61
51249;BME280;39642;47.556;18.728;2022-11-20T06:06:46;99135.16;;;21.46;33.94
51249;BME280;39642;47.556;18.728;2022-11-20T06:09:12;99148.41;;;21.46;33.92
51249;BME280;39642;47.556;18.728;2022-11-20T06:11:38;99142.22;;;21.46;33.60
51249;BME280;39642;47.556;18.728;2022-11-20T06:14:04;99129.88;;;21.46;33.60
51249;BME280;39642;47.556;18.728;2022-11-20T06:16:30;99132.63;;;21.45;33.51
51249;BME280;39642;47.556;18.728;2022-11-20T06:18:55;99140.56;;;21.45;33.57
51249;BME280;39642;47.556;18.728;2022-11-20T06:21:22;99152.97;;;21.44;33.61
51249;BME280;39642;47.556;18.728;2022-11-20T06:23:49;99160.06;;;21.44;33.56
51249;BME280;39642;47.556;18.728;2022-11-20T06:26:21;99157.41;;;21.44;33.65
51249;BME280;39642;47.556;18.728;2022-11-20T06:28:47;99153.91;;;21.43;33.90
51249;BME280;39642;47.556;18.728;2022-11-20T06:31:15;99156.44;;;21.45;33.63
51249;BME280;39642;47.556;18.728;2022-11-20T06:33:42;99153.91;;;21.43;33.88
51249;BME280;39642;47.556;18.728;2022-11-20T06:36:10;99164.41;;;21.45;34.02
51249;BME280;39642;47.556;18.728;2022-11-20T06:38:36;99167.03;;;21.45;34.14
51249;BME280;39642;47.556;18.728;2022-11-20T06:41:03;99165.22;;;21.45;34.28
51249;BME280;39642;47.556;18.728;2022-11-20T06:43:30;99169.59;;;21.46;34.15
51249;BME280;39642;47.556;18.728;2022-11-20T06:45:57;99177.31;;;21.49;34.42
51249;BME280;39642;47.556;18.728;2022-11-20T06:48:25;99176.47;;;21.49;34.00
51249;BME280;39642;47.556;18.728;2022-11-20T06:50:51;99194.16;;;21.48;33.96
51249;BME280;39642;47.556;18.728;2022-11-20T06:53:17;99200.16;;;21.50;34.04
51249;BME280;39642;47.556;18.728;2022-11-20T06:55:47;99204.53;;;21.51;33.93
51249;BME280;39642;47.556;18.728;2022-11-20T06:58:14;99198.41;;;21.51;33.61
51249;BME280;39642;47.556;18.728;2022-11-20T07:00:41;99198.25;;;21.52;33.90
51249;BME280;39642;47.556;18.728;2022-11-20T07:03:09;99199.22;;;21.51;33.82
51249;BME280;39642;47.556;18.728;2022-11-20T07:05:35;99202.63;;;21.53;33.64
51249;BME280;39642;47.556;18.728;2022-11-20T07:08:02;99201.78;;;21.53;33.64
51249;BME280;39642;47.556;18.728;2022-11-20T07:10:28;99198.25;;;21.52;33.76
51249;BME280;39642;47.556;18.728;2022-11-20T07:12:54;99193.84;;;21.53;33.70
51249;BME280;39642;47.556;18.728;2022-11-20T07:15:22;99185.87;;;21.53;34.01
51249;BME280;39642;47.556;18.728;2022-11-20T07:17:49;99187.66;;;21.52;33.98
51249;BME280;39642;47.556;18.728;2022-11-20T07:20:15;99172.66;;;21.53;34.12
51249;BME280;39642;47.556;18.728;2022-11-20T07:22:41;99176.97;;;21.54;34.02
51249;BME280;39642;47.556;18.728;2022-11-20T07:25:08;99189.38;;;21.53;34.03
51249;BME280;39642;47.556;18.728;2022-11-20T07:27:35;99199.00;;;21.54;34.13
51249;BME280;39642;47.556;18.728;2022-11-20T07:30:01;99198.16;;;21.54;34.11
51249;BME280;39642;47.556;18.728;2022-11-20T07:32:28;99202.53;;;21.55;34.09
51249;BME280;39642;47.556;18.728;2022-11-20T07:34:53;99193.69;;;21.54;34.06
51249;BME280;39642;47.556;18.728;2022-11-20T07:37:20;99191.78;;;21.56;33.95
51249;BME280;39642;47.556;18.728;2022-11-20T07:39:46;99189.16;;;21.56;33.74
51249;BME280;39642;47.556;18.728;2022-11-20T07:42:11;99181.94;;;21.58;33.97
51249;BME280;39642;47.556;18.728;2022-11-20T07:44:38;99183.66;;;21.59;33.21
51249;BME280;39642;47.556;18.728;2022-11-20T07:47:04;99178.22;;;21.61;33.14
51249;BME280;39642;47.556;18.728;2022-11-20T07:49:30;99178.94;;;21.63;33.25
51249;BME280;39642;47.556;18.728;2022-11-20T07:51:56;99178.00;;;21.64;33.00
51249;BME280;39642;47.556;18.728;2022-11-20T07:54:22;99185.81;;;21.66;32.90
51249;BME280;39642;47.556;18.728;2022-11-20T07:56:48;99183.91;;;21.68;32.79
51249;BME280;39642;47.556;18.728;2022-11-20T07:59:15;99182.00;;;21.70;32.72
51249;BME280;39642;47.556;18.728;2022-11-20T08:01:42;99183.69;;;21.71;32.91
51249;BME280;39642;47.556;18.728;2022-11-20T08:04:09;99180.09;;;21.72;32.88
51249;BME280;39642;47.556;18.728;2022-11-20T08:06:36;99183.47;;;21.74;32.52
51249;BME280;39642;47.556;18.728;2022-11-20T08:09:02;99183.38;;;21.75;32.88
51249;BME280;39642;47.556;18.728;2022-11-20T08:11:28;99172.63;;;21.77;32.77
51249;BME280;39642;47.556;18.728;2022-11-20T08:14:13;99179.63;;;21.78;32.90
51249;BME280;39642;47.556;18.728;2022-11-20T08:16:44;99183.97;;;21.79;32.73
51249;BME280;39642;47.556;18.728;2022-11-20T08:19:12;99193.63;;;21.80;32.78
51249;BME280;39642;47.556;18.728;2022-11-20T08:21:38;99194.47;;;21.80;32.81
51249;BME280;39642;47.556;18.728;2022-11-20T08:24:05;99190.00;;;21.81;32.88
51249;BME280;39642;47.556;18.728;2022-11-20T08:26:31;99191.81;;;21.80;32.75
51249;BME280;39642;47.556;18.728;2022-11-20T08:28:57;99194.47;;;21.80;32.90
51249;BME280;39642;47.556;18.728;2022-11-20T08:31:24;99197.97;;;21.81;32.89
51249;BME280;39642;47.556;18.728;2022-11-20T08:33:50;99191.81;;;21.80;33.03
51249;BME280;39642;47.556;18.728;2022-11-20T08:36:17;99195.31;;;21.81;33.04
51249;BME280;39642;47.556;18.728;2022-11-20T08:38:56;99193.63;;;21.80;33.22
51249;BME280;39642;47.556;18.728;2022-11-20T08:41:22;99198.06;;;21.79;33.24
51249;BME280;39642;47.556;18.728;2022-11-20T08:44:02;99193.72;;;21.78;33.30
51249;BME280;39642;47.556;18.728;2022-11-20T08:46:33;99200.84;;;21.78;33.17
51249;BME280;39642;47.556;18.728;2022-11-20T08:48:59;99204.44;;;21.77;33.31
51249;BME280;39642;47.556;18.728;2022-11-20T08:51:25;99199.13;;;21.77;33.43
51249;BME280;39642;47.556;18.728;2022-11-20T08:53:51;99204.44;;;21.77;33.55
51249;BME280;39642;47.556;18.728;2022-11-20T08:56:17;99203.59;;;21.76;33.77
51249;BME280;39642;47.556;18.728;2022-11-20T08:58:43;99201.91;;;21.75;33.56
51249;BME280;39642;47.556;18.728;2022-11-20T09:01:10;99209.88;;;21.75;33.56
51249;BME280;39642;47.556;18.728;2022-11-20T09:03:36;99221.41;;;21.74;33.84
51249;BME280;39642;47.556;18.728;2022-11-20T09:06:05;99220.56;;;21.74;33.43
51249;BME280;39642;47.556;18.728;2022-11-20T09:08:31;99230.31;;;21.73;33.21
51249;BME280;39642;47.556;18.728;2022-11-20T09:10:58;99238.28;;;21.73;33.68
51249;BME280;39642;47.556;18.728;2022-11-20T09:13:26;99238.28;;;21.73;33.77
51249;BME280;39642;47.556;18.728;2022-11-20T09:15:56;99232.09;;;21.73;33.65
51249;BME280;39642;47.556;18.728;2022-11-20T09:18:23;99237.31;;;21.74;33.61
51249;BME280;39642;47.556;18.728;2022-11-20T09:20:49;99240.69;;;21.76;33.46
51249;BME280;39642;47.556;18.728;2022-11-20T09:23:16;99230.94;;;21.77;33.10
51249;BME280;39642;47.556;18.728;2022-11-20T09:25:42;99234.44;;;21.77;33.24
51249;BME280;39642;47.556;18.728;2022-11-20T09:28:09;99233.47;;;21.78;33.34
51249;BME280;39642;47.556;18.728;2022-11-20T09:30:35;99231.56;;;21.80;33.09
51249;BME280;39642;47.556;18.728;2022-11-20T09:33:01;99227.94;;;21.81;33.09
51249;BME280;39642;47.556;18.728;2022-11-20T09:35:27;99230.50;;;21.83;33.33
51249;BME280;39642;47.556;18.728;2022-11-20T09:37:52;99240.84;;;21.86;33.02
51249;BME280;39642;47.556;18.728;2022-11-20T09:45:58;99244.16;;;21.90;33.10
51249;BME280;39642;47.556;18.728;2022-11-20T09:48:36;99243.19;;;21.91;33.19
51249;BME280;39642;47.556;18.728;2022-11-20T09:51:12;99237.88;;;21.91;33.10
51249;BME280;39642;47.556;18.728;2022-11-20T09:53:52;99239.59;;;21.92;33.17
51249;BME280;39642;47.556;18.728;2022-11-20T09:56:24;99238.59;;;21.93;33.24
51249;BME280;39642;47.556;18.728;2022-11-20T09:58:52;99240.41;;;21.92;33.02
51249;BME280;39642;47.556;18.728;2022-11-20T10:01:23;99235.97;;;21.93;33.25
51249;BME280;39642;47.556;18.728;2022-11-20T10:04:08;99233.44;;;21.91;33.10
51249;BME280;39642;47.556;18.728;2022-11-20T10:06:44;99222.84;;;21.91;33.39
51249;BME280;39642;47.556;18.728;2022-11-20T10:11:45;99226.44;;;21.90;33.28
51249;BME280;39642;47.556;18.728;2022-11-20T10:23:18;99193.06;;;21.88;33.74
51249;BME280;39642;47.556;18.728;2022-11-20T10:28:42;99192.22;;;21.87;33.59
51249;BME280;39642;47.556;18.728;2022-11-20T10:31:24;99190.41;;;21.88;33.67
51249;BME280;39642;47.556;18.728;2022-11-20T10:33:51;99195.69;;;21.88;33.74
51249;BME280;39642;47.556;18.728;2022-11-20T10:36:34;99188.72;;;21.87;33.71
51249;BME280;39642;47.556;18.728;2022-11-20T10:39:18;99183.41;;;21.87;33.74
51249;BME280;39642;47.556;18.728;2022-11-20T10:41:50;99187.00;;;21.86;33.74
51249;BME280;39642;47.556;18.728;2022-11-20T10:44:29;99190.50;;;21.86;33.74
51249;BME280;39642;47.556;18.728;2022-11-20T10:47:15;99180.88;;;21.85;33.54
51249;BME280;39642;47.556;18.728;2022-11-20T10:49:43;99179.06;;;21.86;33.80
51249;BME280;39642;47.556;18.728;2022-11-20T10:55:13;99170.03;;;21.88;33.12
51249;BME280;39642;47.556;18.728;2022-11-20T11:00:10;99168.13;;;21.90;33.36
51249;BME280;39642;47.556;18.728;2022-11-20T11:02:43;99158.34;;;21.91;32.91
51249;BME280;39642;47.556;18.728;2022-11-20T11:07:52;99185.50;;;21.94;33.25
51249;BME280;39642;47.556;18.728;2022-11-20T11:10:28;99183.56;;;21.96;33.32
51249;BME280;39642;47.556;18.728;2022-11-20T11:12:58;99190.56;;;21.97;32.97
51249;BME280;39642;47.556;18.728;2022-11-20T11:15:28;99198.41;;;21.99;33.31
51249;BME280;39642;47.556;18.728;2022-11-20T11:17:55;99196.59;;;21.99;33.30
51249;BME280;39642;47.556;18.728;2022-11-20T11:20:23;99200.13;;;22.00;33.29
51249;BME280;39642;47.556;18.728;2022-11-20T11:22:58;99198.31;;;22.00;33.31
51249;BME280;39642;47.556;18.728;2022-11-20T11:25:34;99195.50;;;22.02;33.19
51249;BME280;39642;47.556;18.728;2022-11-20T11:28:20;99197.31;;;22.01;33.22
51249;BME280;39642;47.556;18.728;2022-11-20T11:30:46;99202.63;;;22.01;33.41
51249;BME280;39642;47.556;18.728;2022-11-20T11:33:24;99197.31;;;22.01;33.51
51249;BME280;39642;47.556;18.728;2022-11-20T11:36:02;99193.84;;;22.01;33.60
51249;BME280;39642;47.556;18.728;2022-11-20T11:38:36;99188.53;;;22.01;33.82
51249;BME280;39642;47.556;18.728;2022-11-20T11:41:04;99198.41;;;21.99;33.72
51249;BME280;39642;47.556;18.728;2022-11-20T11:43:35;99205.53;;;21.98;33.75
51249;BME280;39642;47.556;18.728;2022-11-20T11:48:57;99202.03;;;21.98;33.86
51249;BME280;39642;47.556;18.728;2022-11-20T11:51:26;99185.37;;;21.96;33.83
51249;BME280;39642;47.556;18.728;2022-11-20T11:53:56;99177.44;;;21.96;33.83
51249;BME280;39642;47.556;18.728;2022-11-20T11:56:24;99173.06;;;21.95;33.97
51249;BME280;39642;47.556;18.728;2022-11-20T11:58:51;99168.75;;;21.94;34.02
51249;BME280;39642;47.556;18.728;2022-11-20T12:04:52;99172.34;;;21.93;33.85
51249;BME280;39642;47.556;18.728;2022-11-20T12:06:48;99159.22;;;21.91;33.99
51249;BME280;39642;47.556;18.728;2022-11-20T12:09:18;99157.53;;;21.90;34.09
51249;BME280;39642;47.556;18.728;2022-11-20T12:12:03;99154.87;;;21.90;34.08
51249;BME280;39642;47.556;18.728;2022-11-20T12:14:37;99162.81;;;21.90;34.02
51249;BME280;39642;47.556;18.728;2022-11-20T12:17:04;99161.16;;;21.89;34.17
51249;BME280;39642;47.556;18.728;2022-11-20T12:19:33;99161.16;;;21.89;34.11
51249;BME280;39642;47.556;18.728;2022-11-20T12:22:12;99169.94;;;21.90;34.02
51249;BME280;39642;47.556;18.728;2022-11-20T12:25:18;99171.75;;;21.89;33.80
51249;BME280;39642;47.556;18.728;2022-11-20T12:28:51;99166.31;;;21.91;33.72
51249;BME280;39642;47.556;18.728;2022-11-20T12:31:41;99160.91;;;21.92;34.05
51249;BME280;39642;47.556;18.728;2022-11-20T12:59:33;99146.91;;;21.90;34.14
51249;BME280;39642;47.556;18.728;2022-11-20T13:07:32;99133.16;;;21.85;34.24
51249;BME280;39642;47.556;18.728;2022-11-20T13:10:00;99133.16;;;21.85;34.43
51249;BME280;39642;47.556;18.728;2022-11-20T13:12:45;99134.13;;;21.84;34.33
51249;BME280;39642;47.556;18.728;2022-11-20T13:17:58;99126.41;;;21.81;34.40
51249;BME280;39642;47.556;18.728;2022-11-20T13:20:25;99132.69;;;21.80;34.39
51249;BME280;39642;47.556;18.728;2022-11-20T13:22:53;99136.28;;;21.79;34.39
51249;BME280;39642;47.556;18.728;2022-11-20T13:25:35;99142.53;;;21.78;34.46
51249;BME280;39642;47.556;18.728;2022-11-20T13:28:27;99140.84;;;21.77;34.39
51249;BME280;39642;47.556;18.728;2022-11-20T13:30:57;99144.47;;;21.76;34.43
51249;BME280;39642;47.556;18.728;2022-11-20T13:33:31;99135.66;;;21.75;34.49
51249;BME280;39642;47.556;18.728;2022-11-20T13:36:03;99141.06;;;21.74;34.40
51249;BME280;39642;47.556;18.728;2022-11-20T13:38:43;99134.06;;;21.73;34.41
51249;BME280;39642;47.556;18.728;2022-11-20T13:41:10;99125.28;;;21.72;34.43
51249;BME280;39642;47.556;18.728;2022-11-20T13:43:59;99122.75;;;21.71;34.36
51249;BME280;39642;47.556;18.728;2022-11-20T13:46:36;99116.59;;;21.70;34.44
51249;BME280;39642;47.556;18.728;2022-11-20T13:49:10;99121.06;;;21.70;34.39
51249;BME280;39642;47.556;18.728;2022-11-20T13:51:51;99112.38;;;21.68;34.33
51249;BME280;39642;47.556;18.728;2022-11-20T13:59:57;99115.16;;;21.66;34.46
51249;BME280;39642;47.556;18.728;2022-11-20T14:02:26;99109.00;;;21.66;34.35
51249;BME280;39642;47.556;18.728;2022-11-20T14:04:56;99116.09;;;21.65;34.28
51249;BME280;39642;47.556;18.728;2022-11-20T14:07:27;99119.72;;;21.64;34.31
51249;BME280;39642;47.556;18.728;2022-11-20T14:09:57;99120.56;;;21.65;34.38
51249;BME280;39642;47.556;18.728;2022-11-20T14:12:33;99117.19;;;21.62;34.33
51249;BME280;39642;47.556;18.728;2022-11-20T14:14:59;99119.81;;;21.62;34.33
51249;BME280;39642;47.556;18.728;2022-11-20T14:19:58;99119.81;;;21.62;34.39
51249;BME280;39642;47.556;18.728;2022-11-20T14:22:26;99126.94;;;21.62;34.48
51249;BME280;39642;47.556;18.728;2022-11-20T14:27:27;99120.75;;;21.61;34.59
51249;BME280;39642;47.556;18.728;2022-11-20T14:29:53;99120.91;;;21.60;34.58